createdAt,value
2019-04-11T00:02:28.897Z,3.26
2019-04-11T00:04:58.797Z,3.23
2019-04-11T00:07:26.368Z,3.22
2019-04-11T00:09:54.583Z,3.19
2019-04-11T00:12:22.157Z,3.19
2019-04-11T00:14:49.285Z,3.15
2019-04-11T00:17:17.434Z,3.10
2019-04-11T00:19:45.379Z,3.05
2019-04-11T00:22:13.184Z,3.01
2019-04-11T00:24:40.386Z,2.97
2019-04-11T00:27:07.420Z,2.93
2019-04-11T00:29:34.552Z,2.91
2019-04-11T00:32:01.598Z,2.89
2019-04-11T00:34:29.014Z,2.84
2019-04-11T00:36:56.843Z,2.82
2019-04-11T00:39:23.987Z,2.79
2019-04-11T00:41:52.319Z,2.75
2019-04-11T00:44:19.574Z,2.72
2019-04-11T00:46:46.747Z,2.69
2019-04-11T00:49:14.429Z,2.66
2019-04-11T00:51:42.346Z,2.61
2019-04-11T00:54:09.402Z,2.60
2019-04-11T00:56:36.746Z,2.58
2019-04-11T00:59:03.954Z,2.56
2019-04-11T01:01:31.586Z,2.53
2019-04-11T01:03:59.188Z,2.51
2019-04-11T01:06:27.997Z,2.48
2019-04-11T01:08:55.820Z,2.43
2019-04-11T01:11:23.778Z,2.40
2019-04-11T01:13:53.937Z,2.39
2019-04-11T01:16:45.642Z,2.37
2019-04-11T01:19:14.184Z,2.33
2019-04-11T01:21:42.384Z,2.28
2019-04-11T01:24:09.578Z,2.26
2019-04-11T01:26:37.181Z,2.23
2019-04-11T01:29:04.454Z,2.21
2019-04-11T01:31:33.717Z,2.17
2019-04-11T01:34:00.914Z,2.14
2019-04-11T01:36:35.250Z,2.10
2019-04-11T01:39:11.086Z,2.10
2019-04-11T01:41:40.530Z,2.08
2019-04-11T01:44:25.549Z,2.08
2019-04-11T01:46:58.346Z,2.09
2019-04-11T01:49:25.669Z,2.06
2019-04-11T01:51:53.852Z,2.04
2019-04-11T01:54:28.488Z,2.01
2019-04-11T01:56:55.831Z,1.99
2019-04-11T01:59:23.608Z,1.98
2019-04-11T02:02:01.251Z,1.97
2019-04-11T02:05:00.751Z,1.92
2019-04-11T02:07:30.918Z,1.92
2019-04-11T02:09:58.307Z,1.85
2019-04-11T02:12:26.893Z,1.85
2019-04-11T02:14:54.131Z,1.83
2019-04-11T02:17:22.304Z,1.82
2019-04-11T02:19:50.244Z,1.80
2019-04-11T02:22:42.821Z,1.76
2019-04-11T02:25:33.482Z,1.76
2019-04-11T02:28:01.355Z,1.73
2019-04-11T02:30:30.510Z,1.70
2019-04-11T02:32:58.348Z,1.67
2019-04-11T02:35:26.778Z,1.64
2019-04-11T02:37:54.886Z,1.60
2019-04-11T02:40:24.596Z,1.56
2019-04-11T02:42:52.044Z,1.55
2019-04-11T02:45:31.171Z,1.52
2019-04-11T02:47:51.038Z,1.51
2019-04-11T02:50:19.774Z,1.46
2019-04-11T02:52:47.348Z,1.41
2019-04-11T02:55:14.594Z,1.41
2019-04-11T02:57:42.945Z,1.38
2019-04-11T03:00:11.199Z,1.36
2019-04-11T03:02:41.627Z,1.34
2019-04-11T03:05:10.072Z,1.27
2019-04-11T03:07:38.065Z,1.25
2019-04-11T03:10:07.320Z,1.20
2019-04-11T03:12:40.504Z,1.17
2019-04-11T03:15:24.309Z,1.15
2019-04-11T03:17:43.088Z,1.15
2019-04-11T03:20:18.363Z,1.11
2019-04-11T03:22:35.696Z,1.08
2019-04-11T03:25:04.984Z,1.07
2019-04-11T03:27:34.762Z,1.04
2019-04-11T03:30:03.269Z,1.03
2019-04-11T03:33:17.938Z,1.03
2019-04-11T03:35:51.710Z,1.02
2019-04-11T03:37:55.187Z,1.00
2019-04-11T03:40:19.499Z,0.99
2019-04-11T03:42:45.175Z,0.97
2019-04-11T03:45:20.582Z,0.93
2019-04-11T03:47:40.915Z,0.90
2019-04-11T03:50:07.202Z,0.88
2019-04-11T03:52:28.428Z,0.87
2019-04-11T03:54:56.840Z,0.86
2019-04-11T03:57:25.648Z,0.86
2019-04-11T03:59:54.507Z,0.86
2019-04-11T04:02:22.574Z,0.83
2019-04-11T04:04:53.491Z,0.83
2019-04-11T04:07:21.415Z,0.82
2019-04-11T04:09:49.050Z,0.80
2019-04-11T04:12:16.267Z,0.79
2019-04-11T04:14:56.739Z,0.78
2019-04-11T04:17:41.292Z,0.78
2019-04-11T04:20:41.868Z,0.76
2019-04-11T04:23:24.781Z,0.75
2019-04-11T04:25:52.446Z,0.75
2019-04-11T04:28:21.292Z,0.75
2019-04-11T04:30:49.367Z,0.72
2019-04-11T04:33:17.130Z,0.72
2019-04-11T04:35:47.297Z,0.71
2019-04-11T04:38:15.695Z,0.70
2019-04-11T04:41:00.405Z,0.70
2019-04-11T04:43:16.535Z,0.70
2019-04-11T04:46:06.599Z,0.70
2019-04-11T04:48:17.875Z,0.72
2019-04-11T04:50:42.222Z,0.70
2019-04-11T04:53:09.426Z,0.71
2019-04-11T04:55:36.829Z,0.70
2019-04-11T04:58:04.921Z,0.68
2019-04-11T05:00:32.242Z,0.69
2019-04-11T05:03:01.937Z,0.69
2019-04-11T05:05:33.791Z,0.70
2019-04-11T05:08:02.728Z,0.70
2019-04-11T05:10:30.689Z,0.70
2019-04-11T05:12:59.210Z,0.71
2019-04-11T05:15:26.530Z,0.71
2019-04-11T05:17:53.614Z,0.72
2019-04-11T05:20:21.827Z,0.72
2019-04-11T05:22:51.299Z,0.72
2019-04-11T05:25:20.314Z,0.73
2019-04-11T05:27:47.579Z,0.73
2019-04-11T05:30:14.862Z,0.75
2019-04-11T05:32:41.937Z,0.77
2019-04-11T05:35:09.142Z,0.82
2019-04-11T05:37:37.683Z,0.88
2019-04-11T05:40:05.346Z,0.91
2019-04-11T05:42:33.405Z,0.98
2019-04-11T05:45:00.516Z,1.03
2019-04-11T05:47:27.715Z,1.08
2019-04-11T05:50:10.008Z,1.15
2019-04-11T05:52:35.216Z,1.25
2019-04-11T05:55:04.903Z,1.34
2019-04-11T05:57:41.941Z,1.44
2019-04-11T06:00:16.447Z,1.52
2019-04-11T06:02:46.919Z,1.65
2019-04-11T06:05:32.476Z,1.75
2019-04-11T06:07:59.916Z,1.87
2019-04-11T06:10:46.760Z,2.01
2019-04-11T06:13:24.688Z,2.10
2019-04-11T06:15:53.639Z,2.22
2019-04-11T06:18:39.626Z,2.33
2019-04-11T06:21:19.880Z,2.43
2019-04-11T06:24:12.701Z,2.52
2019-04-11T06:26:47.038Z,2.65
2019-04-11T06:29:23.250Z,2.73
2019-04-11T06:32:25.967Z,2.82
2019-04-11T06:35:18.507Z,2.91
2019-04-11T06:38:03.918Z,3.02
2019-04-11T06:40:39.126Z,3.12
2019-04-11T06:43:40.416Z,3.21
2019-04-11T06:46:25.013Z,3.31
2019-04-11T06:49:06.502Z,3.39
2019-04-11T06:51:46.745Z,3.46
2019-04-11T06:54:39.324Z,3.57
2019-04-11T06:57:11.799Z,3.66
2019-04-11T06:59:42.958Z,3.75
2019-04-11T07:02:18.124Z,3.84
2019-04-11T07:04:49.634Z,3.89
2019-04-11T07:07:18.431Z,4.00
2019-04-11T07:09:57.686Z,4.02
2019-04-11T07:12:34.961Z,4.16
2019-04-11T07:15:27.657Z,4.25
2019-04-11T07:18:14.021Z,4.31
2019-04-11T07:21:00.786Z,4.37
2019-04-11T07:23:47.035Z,4.46
2019-04-11T07:26:35.029Z,4.54
2019-04-11T07:29:21.833Z,4.63
2019-04-11T07:32:05.296Z,4.71
2019-04-11T07:34:45.757Z,4.77
2019-04-11T07:37:38.807Z,4.95
2019-04-11T07:40:28.834Z,5.03
2019-04-11T07:43:23.236Z,5.14
2019-04-11T07:46:22.260Z,5.25
2019-04-11T07:48:54.861Z,5.34
2019-04-11T07:51:27.618Z,5.39
2019-04-11T07:53:56.755Z,5.45
2019-04-11T07:56:35.995Z,5.51
2019-04-11T07:59:07.275Z,5.62
2019-04-11T08:01:54.950Z,5.74
2019-04-11T08:04:40.810Z,5.77
2019-04-11T08:07:40.375Z,5.82
2019-04-11T08:10:12.503Z,5.89
2019-04-11T08:12:39.606Z,5.98
2019-04-11T08:15:29.873Z,6.02
2019-04-11T08:17:59.813Z,6.07
2019-04-11T08:20:45.696Z,6.12
2019-04-11T08:23:13.788Z,6.23
2019-04-11T08:25:59.915Z,6.30
2019-04-11T08:28:27.331Z,6.29
2019-04-11T08:31:26.450Z,6.42
2019-04-11T08:33:57.219Z,6.48
2019-04-11T08:36:47.219Z,6.52
2019-04-11T08:39:18.920Z,6.52
2019-04-11T08:41:56.901Z,6.58
2019-04-11T08:44:43.989Z,6.73
2019-04-11T08:47:13.283Z,6.83
2019-04-11T08:49:42.778Z,6.88
2019-04-11T08:52:22.217Z,6.96
2019-04-11T08:54:59.120Z,7.09
2019-04-11T08:57:49.862Z,7.12
2019-04-11T09:00:37.989Z,7.20
2019-04-11T09:03:27.547Z,7.28
2019-04-11T09:06:02.543Z,7.34
2019-04-11T09:08:54.447Z,7.45
2019-04-11T09:11:26.544Z,7.54
2019-04-11T09:14:22.545Z,7.58
2019-04-11T09:16:54.225Z,7.63
2019-04-11T09:19:27.816Z,7.69
2019-04-11T09:22:25.359Z,7.87
2019-04-11T09:25:12.813Z,8.01
2019-04-11T09:28:02.897Z,8.07
2019-04-11T09:31:10.555Z,8.21
2019-04-11T09:34:03.632Z,8.20
2019-04-11T09:40:29.973Z,8.39
2019-04-11T09:43:17.997Z,8.42
2019-04-11T09:46:03.364Z,8.44
2019-04-11T09:49:02.533Z,8.59
2019-04-11T09:51:42.271Z,8.63
2019-04-11T09:54:23.957Z,8.79
2019-04-11T09:57:10.011Z,8.84
2019-04-11T10:00:03.860Z,8.77
2019-04-11T10:02:50.503Z,8.78
2019-04-11T10:05:22.362Z,8.99
2019-04-11T10:08:04.456Z,9.23
2019-04-11T10:10:53.329Z,9.25
2019-04-11T10:13:43.042Z,9.27
2019-04-11T10:16:28.741Z,9.32
2019-04-11T10:19:15.788Z,9.51
2019-04-11T10:21:47.953Z,9.62
2019-04-11T10:24:24.542Z,9.84
2019-04-11T10:26:58.377Z,9.98
2019-04-11T10:29:52.517Z,9.95
2019-04-11T10:32:23.307Z,9.89
2019-04-11T10:35:10.202Z,9.87
2019-04-11T10:37:40.062Z,9.87
2019-04-11T10:40:28.656Z,9.78
2019-04-11T10:42:56.001Z,9.94
2019-04-11T10:45:46.893Z,10.14
2019-04-11T10:48:14.088Z,10.18
2019-04-11T10:51:06.787Z,10.24
2019-04-11T10:53:33.934Z,10.41
2019-04-11T10:56:19.370Z,10.60
2019-04-11T10:58:55.411Z,10.69
2019-04-11T11:01:58.148Z,11.12
2019-04-11T11:04:34.754Z,11.41
2019-04-11T11:07:06.505Z,11.75
2019-04-11T11:09:56.751Z,12.00
2019-04-11T11:12:43.635Z,11.67
2019-04-11T11:15:17.844Z,11.51
2019-04-11T11:18:48.196Z,11.54
2019-04-11T11:21:01.754Z,11.73
2019-04-11T11:23:45.021Z,11.82
2019-04-11T11:26:27.906Z,11.71
2019-04-11T11:29:09.963Z,11.77
2019-04-11T11:31:36.383Z,11.49
2019-04-11T11:34:05.003Z,11.24
2019-04-11T11:36:51.982Z,11.02
2019-04-11T11:39:31.323Z,10.95
2019-04-11T11:42:17.835Z,11.40
2019-04-11T11:44:53.012Z,11.84
2019-04-11T11:47:41.228Z,12.00
2019-04-11T11:50:15.543Z,11.61
2019-04-11T11:52:57.358Z,11.49
2019-04-11T11:55:27.923Z,11.87
2019-04-11T11:58:16.812Z,12.71
2019-04-11T12:00:42.604Z,13.42
2019-04-11T12:03:19.042Z,13.63
2019-04-11T12:05:54.031Z,13.69
2019-04-11T12:08:45.356Z,13.28
2019-04-11T12:11:11.789Z,13.01
2019-04-11T12:14:02.007Z,12.89
2019-04-11T12:17:08.364Z,12.58
2019-04-11T12:20:02.589Z,12.70
2019-04-11T12:22:24.924Z,13.26
2019-04-11T12:25:24.990Z,13.81
2019-04-11T12:28:23.495Z,14.05
2019-04-11T12:30:57.881Z,14.19
2019-04-11T12:33:39.530Z,14.92
2019-04-11T12:36:09.856Z,15.17
2019-04-11T12:38:46.389Z,15.15
2019-04-11T12:41:35.993Z,14.79
2019-04-11T12:44:29.457Z,14.48
2019-04-11T12:47:15.808Z,14.79
2019-04-11T12:50:01.417Z,15.23
2019-04-11T12:52:37.915Z,14.40
2019-04-11T12:59:05.158Z,13.50
2019-04-11T13:01:50.463Z,13.82
2019-04-11T13:04:23.464Z,14.75
2019-04-11T13:07:09.141Z,15.25
2019-04-11T13:09:43.840Z,15.32
2019-04-11T13:12:17.706Z,15.48
2019-04-11T13:15:02.670Z,15.68
2019-04-11T13:17:32.525Z,15.70
2019-04-11T13:20:18.007Z,15.95
2019-04-11T13:22:45.549Z,16.01
2019-04-11T13:25:41.233Z,16.19
2019-04-11T13:28:08.328Z,16.41
2019-04-11T13:30:54.997Z,16.54
2019-04-11T13:33:24.489Z,16.44
2019-04-11T13:36:14.168Z,16.44
2019-04-11T13:38:46.261Z,16.29
2019-04-11T13:41:31.699Z,16.38
2019-04-11T13:44:09.903Z,16.52
2019-04-11T13:46:57.104Z,16.17
2019-04-11T13:49:42.486Z,15.84
2019-04-11T13:52:29.172Z,15.10
2019-04-11T13:55:10.909Z,14.40
2019-04-11T13:57:57.627Z,14.62
2019-04-11T14:00:46.443Z,15.14
2019-04-11T14:03:48.474Z,15.76
2019-04-11T14:06:18.975Z,15.05
2019-04-11T14:09:23.951Z,14.18
2019-04-11T14:12:10.506Z,13.79
2019-04-11T14:14:43.010Z,14.55
2019-04-11T14:17:28.430Z,15.06
2019-04-11T14:20:28.705Z,15.22
2019-04-11T14:23:14.715Z,14.71
2019-04-11T14:26:00.835Z,13.95
2019-04-11T14:28:34.719Z,13.94
2019-04-11T14:31:30.624Z,14.07
2019-04-11T14:34:03.593Z,14.20
2019-04-11T14:36:56.036Z,14.45
2019-04-11T14:39:25.364Z,14.37
2019-04-11T14:42:14.832Z,14.19
2019-04-11T14:44:42.122Z,14.24
2019-04-11T14:47:38.989Z,14.27
2019-04-11T14:50:04.592Z,14.50
2019-04-11T14:53:35.518Z,14.65
2019-04-11T14:56:05.393Z,14.84
2019-04-11T14:58:46.600Z,14.50
2019-04-11T15:01:15.520Z,14.47
2019-04-11T15:04:13.606Z,14.08
2019-04-11T15:06:45.300Z,13.28
2019-04-11T15:09:32.239Z,12.70
2019-04-11T15:12:05.311Z,12.54
2019-04-11T15:14:51.891Z,12.70
2019-04-11T15:17:26.379Z,12.97
2019-04-11T15:20:02.328Z,13.28
2019-04-11T15:22:47.677Z,13.47
2019-04-11T15:25:22.008Z,13.61
2019-04-11T15:28:12.437Z,13.96
2019-04-11T15:30:49.380Z,13.89
2019-04-11T15:33:36.264Z,13.78
2019-04-11T15:36:03.705Z,13.67
2019-04-11T15:38:46.972Z,13.14
2019-04-11T15:41:17.577Z,13.20
2019-04-11T15:44:03.192Z,13.50
2019-04-11T15:46:35.250Z,13.80
2019-04-11T15:49:34.209Z,13.94
2019-04-11T15:52:06.874Z,13.96
2019-04-11T15:54:42.734Z,13.96
2019-04-11T15:57:35.329Z,13.38
2019-04-11T16:00:28.682Z,12.64
2019-04-11T16:03:04.582Z,12.17
2019-04-11T16:05:49.908Z,11.80
2019-04-11T16:08:30.221Z,11.50
2019-04-11T16:11:05.120Z,11.44
2019-04-11T16:13:41.870Z,11.68
2019-04-11T16:16:11.882Z,11.80
2019-04-11T16:18:57.522Z,11.99
2019-04-11T16:21:33.599Z,11.97
2019-04-11T16:24:06.876Z,12.16
2019-04-11T16:26:45.455Z,12.24
2019-04-11T16:29:22.385Z,12.20
2019-04-11T16:31:49.792Z,12.28
2019-04-11T16:34:47.650Z,12.42
2019-04-11T16:37:07.117Z,12.41
2019-04-11T16:39:42.814Z,12.35
2019-04-11T16:42:11.163Z,12.36
2019-04-11T16:45:09.764Z,12.30
2019-04-11T16:47:50.105Z,12.34
2019-04-11T16:50:17.304Z,12.02
2019-04-11T16:52:44.403Z,11.76
2019-04-11T16:55:11.589Z,11.47
2019-04-11T16:57:38.675Z,11.36
2019-04-11T17:00:09.108Z,11.23
2019-04-11T17:02:36.292Z,11.14
2019-04-11T17:05:05.332Z,11.06
2019-04-11T17:07:56.172Z,10.96
2019-04-11T17:10:44.043Z,10.82
2019-04-11T17:13:11.154Z,10.72
2019-04-11T17:15:38.274Z,10.69
2019-04-11T17:18:05.338Z,10.67
2019-04-11T17:20:35.672Z,10.51
2019-04-11T17:23:02.666Z,10.37
2019-04-11T17:25:29.849Z,10.21
2019-04-11T17:27:57.117Z,10.16
2019-04-11T17:30:24.725Z,10.05
2019-04-11T17:32:55.552Z,9.98
2019-04-11T17:35:21.405Z,9.98
2019-04-11T17:37:48.514Z,9.98
2019-04-11T17:40:15.637Z,9.88
2019-04-11T17:42:44.017Z,9.84
2019-04-11T17:45:11.633Z,9.81
2019-04-11T17:47:38.795Z,9.77
2019-04-11T17:50:30.089Z,9.77
2019-04-11T17:52:57.282Z,9.71
2019-04-11T17:55:24.644Z,9.65
2019-04-11T17:57:51.752Z,9.52
2019-04-11T18:00:40.505Z,9.42
2019-04-11T18:03:44.220Z,9.33
2019-04-11T18:06:11.299Z,9.22
2019-04-11T18:08:38.457Z,9.16
2019-04-11T18:11:05.576Z,9.06
2019-04-11T18:13:32.732Z,8.98
2019-04-11T18:16:01.234Z,8.97
2019-04-11T18:18:29.115Z,8.86
2019-04-11T18:20:56.255Z,8.82
2019-04-11T18:23:23.372Z,8.75
2019-04-11T18:25:51.126Z,8.68
2019-04-11T18:28:21.674Z,8.64
2019-04-11T18:30:48.089Z,8.60
2019-04-11T18:33:15.197Z,8.61
2019-04-11T18:35:42.328Z,8.56
2019-04-11T18:38:09.436Z,8.53
2019-04-11T18:40:37.974Z,8.47
2019-04-11T18:43:05.554Z,8.44
2019-04-11T18:45:35.575Z,8.41
2019-04-11T18:48:02.871Z,8.37
2019-04-11T18:50:30.092Z,8.36
2019-04-11T18:52:59.592Z,8.28
2019-04-11T18:55:26.247Z,8.26
2019-04-11T18:57:53.485Z,8.26
2019-04-11T19:00:21.741Z,8.25
2019-04-11T19:02:49.036Z,8.22
2019-04-11T19:05:27.868Z,8.19
2019-04-11T19:07:45.672Z,8.16
2019-04-11T19:10:15.001Z,8.16
2019-04-11T19:12:44.015Z,8.14
2019-04-11T19:15:16.687Z,8.13
2019-04-11T19:17:43.964Z,8.11
2019-04-11T19:20:12.803Z,8.10
2019-04-11T19:22:39.899Z,8.10
2019-04-11T19:25:11.458Z,8.06
2019-04-11T19:27:36.784Z,8.01
2019-04-11T19:30:05.782Z,7.94
2019-04-11T19:32:32.875Z,7.87
2019-04-11T19:35:00.201Z,7.81
2019-04-11T19:37:27.433Z,7.76
2019-04-11T19:39:54.558Z,7.69
2019-04-11T19:43:05.624Z,7.62
2019-04-11T19:45:32.706Z,7.56
2019-04-11T19:47:59.990Z,7.44
2019-04-11T19:50:29.095Z,7.36
2019-04-11T19:52:56.101Z,7.27
2019-04-11T19:55:35.439Z,7.18
2019-04-11T19:58:02.567Z,7.08
2019-04-11T20:00:29.890Z,7.02
2019-04-11T20:02:58.214Z,6.96
2019-04-11T20:05:25.413Z,6.87
2019-04-11T20:07:55.456Z,6.81
2019-04-11T20:10:22.646Z,6.75
2019-04-11T20:12:50.912Z,6.68
2019-04-11T20:15:17.979Z,6.59
2019-04-11T20:17:51.094Z,6.54
2019-04-11T20:20:15.813Z,6.50
2019-04-11T20:22:43.779Z,6.41
2019-04-11T20:25:10.994Z,6.34
2019-04-11T20:27:38.273Z,6.26
2019-04-11T20:30:06.193Z,6.26
2019-04-11T20:32:33.818Z,6.25
2019-04-11T20:35:00.995Z,6.20
2019-04-11T20:37:38.699Z,6.17
2019-04-11T20:39:57.298Z,6.17
2019-04-11T20:42:24.769Z,6.18
2019-04-11T20:44:52.058Z,6.18
2019-04-11T20:47:19.163Z,6.18
2019-04-11T20:49:49.129Z,6.16
2019-04-11T20:52:17.564Z,6.17
2019-04-11T20:54:46.467Z,6.16
2019-04-11T20:57:24.953Z,6.12
2019-04-11T20:59:42.747Z,6.08
2019-04-11T21:02:09.912Z,6.09
2019-04-11T21:04:37.012Z,6.03
2019-04-11T21:07:04.134Z,5.96
2019-04-11T21:09:33.244Z,5.93
2019-04-11T21:12:00.278Z,5.84
2019-04-11T21:14:27.389Z,5.78
2019-04-11T21:16:54.493Z,5.71
2019-04-11T21:19:23.296Z,5.64
2019-04-11T21:21:53.275Z,5.57
2019-04-11T21:24:20.500Z,5.47
2019-04-11T21:26:47.670Z,5.35
2019-04-11T21:29:14.819Z,5.26
2019-04-11T21:31:41.887Z,5.19
2019-04-11T21:35:05.136Z,5.05
2019-04-11T21:37:32.320Z,4.95
2019-04-11T21:39:59.395Z,4.95
2019-04-11T21:42:26.517Z,4.90
2019-04-11T21:44:53.595Z,4.89
2019-04-11T21:47:20.658Z,4.84
2019-04-11T21:49:47.771Z,4.78
2019-04-11T21:52:15.925Z,4.73
2019-04-11T21:54:46.327Z,4.71
2019-04-11T21:57:13.437Z,4.65
2019-04-11T21:59:40.667Z,4.58
2019-04-11T22:02:09.537Z,4.47
2019-04-11T22:04:36.649Z,4.38
2019-04-11T22:07:03.782Z,4.28
2019-04-11T22:09:33.033Z,4.25
2019-04-11T22:11:59.984Z,4.19
2019-04-11T22:14:27.067Z,4.13
2019-04-11T22:16:55.048Z,4.12
2019-04-11T22:19:22.316Z,4.08
2019-04-11T22:21:49.401Z,3.99
2019-04-11T22:24:16.494Z,3.91
2019-04-11T22:27:02.105Z,3.80
2019-04-11T22:29:29.208Z,3.69
2019-04-11T22:31:56.595Z,3.59
2019-04-11T22:34:31.564Z,3.50
2019-04-11T22:36:59.990Z,3.51
2019-04-11T22:39:29.006Z,3.44
2019-04-11T22:41:57.298Z,3.38
2019-04-11T22:44:24.488Z,3.35
2019-04-11T22:46:51.591Z,3.38
2019-04-11T22:49:20.528Z,3.40
2019-04-11T22:51:47.693Z,3.43
2019-04-11T22:54:14.766Z,3.42
2019-04-11T22:56:42.408Z,3.42
2019-04-11T23:00:15.244Z,3.45
2019-04-11T23:02:56.042Z,3.53
2019-04-11T23:05:23.142Z,3.58
2019-04-11T23:07:50.213Z,3.68
2019-04-11T23:10:36.751Z,3.77
2019-04-11T23:13:03.862Z,3.83
2019-04-11T23:15:30.930Z,3.90
2019-04-11T23:17:58.022Z,3.97
2019-04-11T23:20:25.150Z,4.03
2019-04-11T23:22:52.238Z,4.08
2019-04-11T23:25:19.369Z,4.13
2019-04-11T23:27:46.444Z,4.18
2019-04-11T23:31:19.801Z,4.22
2019-04-11T23:33:44.781Z,4.30
2019-04-11T23:36:11.839Z,4.37
2019-04-11T23:38:39.027Z,4.44
2019-04-11T23:41:06.092Z,4.48
2019-04-11T23:43:33.211Z,4.53
2019-04-11T23:46:00.274Z,4.57
2019-04-11T23:48:27.336Z,4.62
2019-04-11T23:50:55.205Z,4.67
2019-04-11T23:53:23.004Z,4.70
2019-04-11T23:55:50.388Z,4.74
2019-04-11T23:58:17.504Z,4.78
